createdAt,value
2022-10-16T00:00:38.272Z,6.26
2022-10-16T00:01:40.990Z,6.27
2022-10-16T00:02:44.467Z,6.27
2022-10-16T00:03:48.151Z,6.24
2022-10-16T00:04:53.327Z,6.17
2022-10-16T00:05:58.508Z,6.10
2022-10-16T00:07:01.810Z,6.04
2022-10-16T00:08:05.565Z,5.96
2022-10-16T00:09:10.387Z,5.88
2022-10-16T00:10:14.912Z,5.88
2022-10-16T00:11:25.465Z,5.84
2022-10-16T00:12:27.942Z,5.82
2022-10-16T00:13:32.443Z,5.89
2022-10-16T00:14:36.163Z,5.90
2022-10-16T00:15:39.626Z,5.90
2022-10-16T00:16:44.266Z,5.96
2022-10-16T00:17:48.132Z,5.83
2022-10-16T00:18:51.541Z,5.73
2022-10-16T00:19:55.150Z,5.73
2022-10-16T00:21:02.732Z,5.76
2022-10-16T00:22:05.875Z,5.80
2022-10-16T00:23:09.100Z,5.85
2022-10-16T00:24:12.473Z,5.83
2022-10-16T00:25:15.797Z,5.80
2022-10-16T00:26:20.814Z,5.76
2022-10-16T00:27:24.489Z,5.72
2022-10-16T00:28:29.834Z,5.73
2022-10-16T00:29:33.275Z,5.69
2022-10-16T00:30:42.057Z,5.65
2022-10-16T00:31:46.133Z,5.59
2022-10-16T00:32:51.195Z,5.65
2022-10-16T00:33:56.636Z,5.65
2022-10-16T00:34:59.765Z,5.69
2022-10-16T00:36:03.793Z,5.68
2022-10-16T00:37:06.479Z,5.76
2022-10-16T00:38:09.879Z,5.72
2022-10-16T00:39:13.698Z,5.73
2022-10-16T00:40:16.158Z,5.71
2022-10-16T00:41:19.454Z,5.66
2022-10-16T00:42:25.010Z,5.66
2022-10-16T00:43:36.700Z,5.68
2022-10-16T00:44:44.381Z,5.65
2022-10-16T00:45:47.890Z,5.71
2022-10-16T00:46:51.906Z,5.69
2022-10-16T00:48:03.914Z,5.68
2022-10-16T00:49:12.079Z,5.66
2022-10-16T00:50:18.227Z,5.64
2022-10-16T00:51:23.899Z,5.64
2022-10-16T00:52:27.948Z,5.62
2022-10-16T00:53:31.631Z,5.62
2022-10-16T00:54:35.460Z,5.53
2022-10-16T00:55:42.402Z,5.58
2022-10-16T00:56:45.525Z,5.56
2022-10-16T00:57:49.104Z,5.56
2022-10-16T00:58:51.982Z,5.56
2022-10-16T00:59:57.833Z,5.54
2022-10-16T01:01:01.264Z,5.49
2022-10-16T01:02:05.531Z,5.45
2022-10-16T01:03:29.592Z,5.53
2022-10-16T01:04:36.761Z,5.54
2022-10-16T01:05:43.818Z,5.59
2022-10-16T01:06:48.168Z,5.60
2022-10-16T01:07:54.911Z,5.64
2022-10-16T01:09:08.795Z,5.69
2022-10-16T01:10:33.975Z,5.69
2022-10-16T01:11:45.105Z,5.70
2022-10-16T01:12:49.561Z,5.70
2022-10-16T01:13:54.226Z,5.70
2022-10-16T01:15:04.918Z,5.70
2022-10-16T01:16:16.370Z,5.68
2022-10-16T01:17:21.537Z,5.61
2022-10-16T01:18:27.563Z,5.49
2022-10-16T01:19:34.510Z,5.48
2022-10-16T01:20:48.253Z,5.53
2022-10-16T01:21:54.621Z,5.48
2022-10-16T01:23:16.571Z,5.52
2022-10-16T01:24:29.892Z,5.56
2022-10-16T01:25:37.146Z,5.47
2022-10-16T01:26:44.086Z,5.43
2022-10-16T01:27:48.840Z,5.47
2022-10-16T01:28:56.851Z,5.55
2022-10-16T01:30:03.711Z,5.53
2022-10-16T01:31:07.667Z,5.47
2022-10-16T01:32:18.973Z,5.51
2022-10-16T01:33:25.423Z,5.52
2022-10-16T01:34:42.684Z,5.47
2022-10-16T01:35:50.889Z,5.51
2022-10-16T01:36:59.200Z,5.48
2022-10-16T01:38:06.149Z,5.53
2022-10-16T01:39:10.918Z,5.53
2022-10-16T01:40:15.467Z,5.51
2022-10-16T01:41:24.405Z,5.50
2022-10-16T01:42:32.819Z,5.46
2022-10-16T01:43:38.837Z,5.49
2022-10-16T01:44:42.220Z,5.41
2022-10-16T01:45:50.218Z,5.41
2022-10-16T01:46:54.661Z,5.32
2022-10-16T01:48:00.066Z,5.31
2022-10-16T01:49:03.562Z,5.32
2022-10-16T01:50:07.932Z,5.33
2022-10-16T01:51:13.601Z,5.30
2022-10-16T01:52:17.943Z,5.25
2022-10-16T01:53:22.167Z,5.23
2022-10-16T01:54:28.120Z,5.19
2022-10-16T01:55:36.081Z,5.17
2022-10-16T01:56:40.027Z,5.11
2022-10-16T01:57:48.106Z,5.10
2022-10-16T01:58:52.155Z,5.12
2022-10-16T01:59:57.582Z,5.11
2022-10-16T02:01:04.064Z,5.05
2022-10-16T02:02:10.437Z,5.02
2022-10-16T02:03:15.760Z,5.08
2022-10-16T02:04:21.146Z,5.09
2022-10-16T02:05:31.443Z,5.09
2022-10-16T02:06:34.739Z,5.04
2022-10-16T02:07:38.137Z,5.05
2022-10-16T02:08:43.550Z,5.05
2022-10-16T02:09:47.196Z,5.04
2022-10-16T02:10:50.418Z,4.98
2022-10-16T02:11:58.206Z,4.97
2022-10-16T02:13:03.380Z,4.99
2022-10-16T02:14:08.047Z,5.01
2022-10-16T02:15:14.168Z,5.02
2022-10-16T02:16:17.864Z,4.98
2022-10-16T02:17:22.774Z,5.00
2022-10-16T02:18:28.438Z,4.98
2022-10-16T02:19:31.968Z,4.99
2022-10-16T02:20:36.062Z,4.98
2022-10-16T02:21:46.774Z,5.04
2022-10-16T02:22:51.334Z,5.01
2022-10-16T02:24:05.169Z,4.98
2022-10-16T02:25:28.631Z,4.99
2022-10-16T02:26:39.857Z,4.90
2022-10-16T02:28:02.839Z,4.84
2022-10-16T02:29:08.604Z,4.86
2022-10-16T02:30:21.509Z,4.88
2022-10-16T02:31:28.357Z,4.91
2022-10-16T02:32:33.429Z,4.84
2022-10-16T02:33:41.110Z,4.82
2022-10-16T02:34:45.451Z,4.82
2022-10-16T02:35:49.375Z,4.80
2022-10-16T02:36:52.985Z,4.72
2022-10-16T02:37:55.657Z,4.64
2022-10-16T02:39:02.778Z,4.71
2022-10-16T02:40:06.662Z,4.74
2022-10-16T02:41:12.261Z,4.75
2022-10-16T02:42:16.047Z,4.73
2022-10-16T02:43:18.607Z,4.74
2022-10-16T02:44:22.114Z,4.72
2022-10-16T02:45:26.965Z,4.72
2022-10-16T02:46:31.619Z,4.72
2022-10-16T02:47:35.031Z,4.60
2022-10-16T02:48:38.328Z,4.63
2022-10-16T02:49:41.529Z,4.59
2022-10-16T02:50:45.687Z,4.61
2022-10-16T02:51:49.049Z,4.67
2022-10-16T02:52:52.765Z,4.65
2022-10-16T02:53:55.539Z,4.65
2022-10-16T02:54:59.043Z,4.64
2022-10-16T02:56:05.066Z,4.67
2022-10-16T02:57:08.279Z,4.70
2022-10-16T02:58:10.592Z,4.73
2022-10-16T02:59:17.115Z,4.72
2022-10-16T03:00:20.118Z,4.66
2022-10-16T03:01:25.235Z,4.58
2022-10-16T03:02:28.800Z,4.55
2022-10-16T03:03:33.462Z,4.57
2022-10-16T03:04:35.701Z,4.55
2022-10-16T03:05:38.272Z,4.59
2022-10-16T03:06:40.627Z,4.64
2022-10-16T03:07:43.736Z,4.60
2022-10-16T03:08:47.113Z,4.58
2022-10-16T03:09:50.514Z,4.56
2022-10-16T03:10:54.058Z,4.53
2022-10-16T03:11:57.175Z,4.48
2022-10-16T03:13:00.925Z,4.50
2022-10-16T03:14:03.375Z,4.48
2022-10-16T03:15:09.316Z,4.43
2022-10-16T03:16:12.171Z,4.45
2022-10-16T03:17:17.475Z,4.46
2022-10-16T03:18:20.993Z,4.45
2022-10-16T03:19:25.715Z,4.39
2022-10-16T03:20:29.093Z,4.38
2022-10-16T03:21:32.515Z,4.38
2022-10-16T03:22:36.740Z,4.48
2022-10-16T03:23:40.352Z,4.48
2022-10-16T03:24:43.646Z,4.42
2022-10-16T03:25:48.749Z,4.37
2022-10-16T03:26:51.827Z,4.33
2022-10-16T03:27:54.058Z,4.32
2022-10-16T03:28:57.406Z,4.26
2022-10-16T03:30:03.479Z,4.23
2022-10-16T03:31:06.662Z,4.24
2022-10-16T03:32:10.361Z,4.20
2022-10-16T03:33:12.742Z,4.22
2022-10-16T03:34:18.486Z,4.24
2022-10-16T03:35:22.257Z,4.24
2022-10-16T03:36:25.971Z,4.21
2022-10-16T03:37:29.478Z,4.23
2022-10-16T03:38:35.726Z,4.25
2022-10-16T03:39:39.410Z,4.18
2022-10-16T03:40:43.114Z,4.23
2022-10-16T03:41:49.099Z,4.17
2022-10-16T03:42:52.432Z,4.17
2022-10-16T03:43:55.102Z,4.12
2022-10-16T03:44:58.817Z,4.15
2022-10-16T03:46:02.237Z,4.17
2022-10-16T03:47:06.035Z,4.17
2022-10-16T03:48:10.792Z,4.22
2022-10-16T03:49:14.193Z,4.27
2022-10-16T03:50:17.583Z,4.27
2022-10-16T03:51:20.993Z,4.27
2022-10-16T03:52:24.396Z,4.30
2022-10-16T03:53:29.787Z,4.31
2022-10-16T03:54:34.214Z,4.25
2022-10-16T03:55:37.616Z,4.29
2022-10-16T03:56:42.100Z,4.27
2022-10-16T03:57:47.449Z,4.23
2022-10-16T03:58:50.962Z,4.29
2022-10-16T03:59:54.195Z,4.23
2022-10-16T04:00:56.580Z,4.18
2022-10-16T04:02:00.534Z,4.17
2022-10-16T04:03:02.788Z,4.18
2022-10-16T04:04:07.867Z,4.16
2022-10-16T04:05:11.292Z,4.21
2022-10-16T04:06:16.840Z,4.19
2022-10-16T04:07:19.417Z,4.17
2022-10-16T04:08:22.702Z,4.11
2022-10-16T04:09:26.439Z,4.14
2022-10-16T04:10:28.678Z,4.14
2022-10-16T04:11:38.049Z,4.13
2022-10-16T04:12:42.582Z,4.14
2022-10-16T04:13:46.548Z,4.14
2022-10-16T04:14:48.968Z,4.18
2022-10-16T04:15:52.146Z,4.17
2022-10-16T04:16:55.342Z,4.11
2022-10-16T04:17:58.644Z,4.06
2022-10-16T04:19:05.075Z,4.13
2022-10-16T04:20:10.759Z,4.21
2022-10-16T04:21:14.267Z,4.23
2022-10-16T04:22:17.707Z,4.25
2022-10-16T04:23:21.391Z,4.14
2022-10-16T04:24:26.568Z,4.05
2022-10-16T04:25:30.387Z,4.02
2022-10-16T04:26:34.413Z,4.03
2022-10-16T04:27:38.336Z,4.01
2022-10-16T04:28:42.407Z,4.04
2022-10-16T04:29:46.078Z,4.04
2022-10-16T04:30:49.790Z,4.10
2022-10-16T04:31:53.428Z,4.12
2022-10-16T04:32:55.787Z,4.17
2022-10-16T04:34:02.191Z,4.15
2022-10-16T04:35:07.344Z,4.18
2022-10-16T04:36:10.648Z,4.12
2022-10-16T04:37:12.795Z,4.06
2022-10-16T04:38:16.316Z,4.08
2022-10-16T04:39:21.476Z,4.14
2022-10-16T04:40:24.773Z,4.16
2022-10-16T04:41:28.183Z,4.15
2022-10-16T04:42:30.853Z,4.19
2022-10-16T04:43:36.021Z,4.18
2022-10-16T04:44:39.429Z,4.23
2022-10-16T04:45:42.830Z,4.31
2022-10-16T04:46:45.996Z,4.31
2022-10-16T04:47:51.084Z,4.32
2022-10-16T04:48:54.493Z,4.29
2022-10-16T04:49:58.520Z,4.37
2022-10-16T04:51:03.059Z,4.41
2022-10-16T04:52:06.473Z,4.41
2022-10-16T04:53:10.498Z,4.50
2022-10-16T04:54:13.794Z,4.49
2022-10-16T04:55:18.336Z,4.50
2022-10-16T04:56:23.623Z,4.55
2022-10-16T04:57:29.576Z,4.52
2022-10-16T04:58:35.653Z,4.66
2022-10-16T04:59:39.050Z,4.68
2022-10-16T05:00:42.031Z,4.74
2022-10-16T05:01:45.019Z,4.71
2022-10-16T05:02:49.005Z,4.90
2022-10-16T05:03:52.763Z,4.98
2022-10-16T05:04:57.949Z,5.08
2022-10-16T05:06:03.794Z,5.13
2022-10-16T05:07:06.612Z,5.10
2022-10-16T05:08:09.798Z,5.04
2022-10-16T05:09:14.239Z,5.07
2022-10-16T05:10:18.160Z,5.04
2022-10-16T05:11:21.415Z,5.01
2022-10-16T05:12:25.590Z,5.02
2022-10-16T05:13:29.625Z,5.05
2022-10-16T05:14:32.921Z,5.01
2022-10-16T05:15:36.323Z,5.07
2022-10-16T05:16:38.563Z,5.05
2022-10-16T05:17:44.626Z,5.07
2022-10-16T05:18:48.685Z,5.19
2022-10-16T05:19:54.196Z,5.22
2022-10-16T05:20:57.086Z,5.32
2022-10-16T05:22:00.589Z,5.36
2022-10-16T05:23:03.905Z,5.32
2022-10-16T05:24:07.275Z,5.38
2022-10-16T05:25:10.583Z,5.44
2022-10-16T05:26:13.450Z,5.56
2022-10-16T05:27:19.369Z,5.71
2022-10-16T05:28:22.902Z,5.80
2022-10-16T05:29:26.587Z,5.94
2022-10-16T05:30:30.092Z,6.01
2022-10-16T05:31:34.329Z,5.78
2022-10-16T05:32:38.394Z,5.67
2022-10-16T05:33:42.114Z,5.68
2022-10-16T05:34:46.827Z,5.95
2022-10-16T05:35:50.961Z,6.08
2022-10-16T05:37:00.763Z,6.27
2022-10-16T05:38:04.447Z,6.23
2022-10-16T05:39:07.563Z,6.26
2022-10-16T05:40:11.699Z,6.22
2022-10-16T05:41:20.599Z,6.19
2022-10-16T05:42:24.313Z,6.30
2022-10-16T05:43:28.786Z,6.34
2022-10-16T05:44:31.574Z,6.37
2022-10-16T05:45:39.103Z,6.48
2022-10-16T05:46:44.391Z,6.57
2022-10-16T05:47:47.468Z,6.57
2022-10-16T05:48:54.341Z,6.55
2022-10-16T05:49:58.551Z,6.59
2022-10-16T05:51:04.307Z,6.58
2022-10-16T05:52:07.795Z,6.60
2022-10-16T05:53:11.271Z,6.59
2022-10-16T05:54:14.764Z,6.55
2022-10-16T05:55:17.015Z,6.63
2022-10-16T05:56:20.891Z,6.78
2022-10-16T05:57:24.529Z,6.87
2022-10-16T05:58:30.982Z,6.96
2022-10-16T05:59:34.389Z,7.16
2022-10-16T06:00:37.790Z,7.36
2022-10-16T06:01:42.338Z,7.67
2022-10-16T06:02:46.391Z,8.26
2022-10-16T06:03:51.042Z,8.67
2022-10-16T06:04:57.180Z,9.33
2022-10-16T06:06:00.537Z,9.63
2022-10-16T06:07:03.939Z,9.29
2022-10-16T06:08:06.177Z,9.52
2022-10-16T06:09:10.663Z,9.98
2022-10-16T06:10:13.195Z,10.32
2022-10-16T06:11:18.364Z,10.44
2022-10-16T06:12:21.983Z,10.27
2022-10-16T06:13:24.851Z,10.29
2022-10-16T06:14:29.356Z,10.54
2022-10-16T06:15:33.648Z,10.62
2022-10-16T06:16:37.886Z,10.43
2022-10-16T06:17:41.494Z,10.56
2022-10-16T06:18:44.476Z,10.59
2022-10-16T06:19:49.214Z,10.23
2022-10-16T06:20:52.634Z,10.44
2022-10-16T06:21:54.938Z,10.96
2022-10-16T06:22:58.809Z,11.16
2022-10-16T06:24:02.549Z,11.37
2022-10-16T06:25:05.401Z,12.29
2022-10-16T06:26:10.710Z,12.90
2022-10-16T06:27:16.729Z,12.76
2022-10-16T06:28:24.060Z,12.30
2022-10-16T06:29:27.426Z,11.65
2022-10-16T06:30:30.970Z,11.06
2022-10-16T06:31:34.895Z,10.61
2022-10-16T06:32:38.292Z,10.36
2022-10-16T06:33:41.722Z,10.44
2022-10-16T06:34:45.302Z,10.40
2022-10-16T06:35:48.483Z,11.33
2022-10-16T06:36:52.613Z,13.21
2022-10-16T06:37:57.907Z,15.74
2022-10-16T06:39:01.190Z,16.57
2022-10-16T06:40:08.026Z,16.78
2022-10-16T06:41:12.599Z,16.83
2022-10-16T06:42:18.088Z,17.32
2022-10-16T06:43:23.149Z,17.47
2022-10-16T06:44:26.548Z,17.31
2022-10-16T06:45:29.223Z,16.16
2022-10-16T06:46:31.690Z,16.78
2022-10-16T06:47:34.915Z,17.90
2022-10-16T06:48:38.908Z,19.13
2022-10-16T06:49:43.672Z,20.35
2022-10-16T06:50:48.728Z,21.49
2022-10-16T06:51:52.139Z,22.55
2022-10-16T06:52:55.319Z,23.22
2022-10-16T06:54:03.400Z,23.26
2022-10-16T06:55:06.132Z,23.43
2022-10-16T06:56:16.500Z,24.01
2022-10-16T06:57:18.855Z,24.00
2022-10-16T06:58:22.065Z,23.27
2022-10-16T06:59:25.442Z,23.76
2022-10-16T07:00:27.955Z,24.16
2022-10-16T07:01:30.466Z,25.14
2022-10-16T07:02:33.653Z,25.30
2022-10-16T07:03:43.436Z,25.37
2022-10-16T07:04:47.348Z,25.70
2022-10-16T07:05:51.347Z,25.45
2022-10-16T07:06:54.567Z,25.08
2022-10-16T07:07:57.873Z,25.85
2022-10-16T07:09:02.110Z,25.98
2022-10-16T07:10:05.609Z,26.68
2022-10-16T07:11:11.362Z,27.06
2022-10-16T07:12:14.712Z,27.79
2022-10-16T07:13:17.383Z,27.66
2022-10-16T07:14:23.502Z,27.56
2022-10-16T07:15:27.306Z,27.39
2022-10-16T07:16:31.762Z,26.79
2022-10-16T07:17:35.361Z,27.26
2022-10-16T07:18:39.598Z,27.43
2022-10-16T07:19:44.252Z,27.38
2022-10-16T07:20:47.871Z,27.48
2022-10-16T07:21:50.331Z,27.89
2022-10-16T07:22:53.734Z,27.85
2022-10-16T07:24:02.773Z,28.06
2022-10-16T07:25:06.695Z,27.64
2022-10-16T07:26:11.117Z,27.40
2022-10-16T07:27:15.690Z,27.33
2022-10-16T07:28:20.172Z,28.06
2022-10-16T07:29:23.419Z,28.02
2022-10-16T07:30:28.282Z,28.74
2022-10-16T07:31:31.799Z,28.00
2022-10-16T07:32:35.920Z,28.20
2022-10-16T07:33:40.096Z,28.23
2022-10-16T07:34:44.005Z,27.51
2022-10-16T07:35:53.200Z,28.33
2022-10-16T07:36:56.947Z,28.72
2022-10-16T07:38:01.111Z,28.94
2022-10-16T07:39:05.108Z,29.40
2022-10-16T07:40:11.876Z,29.28
2022-10-16T07:41:17.474Z,28.75
2022-10-16T07:42:22.921Z,28.70
2022-10-16T07:43:26.333Z,28.92
2022-10-16T07:44:29.514Z,28.61
2022-10-16T07:45:32.926Z,28.51
2022-10-16T07:46:37.781Z,28.38
2022-10-16T07:47:41.179Z,28.37
2022-10-16T07:48:46.992Z,28.69
2022-10-16T07:49:50.497Z,28.11
2022-10-16T07:50:53.781Z,28.22
2022-10-16T07:51:57.391Z,28.41
2022-10-16T07:53:00.176Z,28.23
2022-10-16T07:54:05.193Z,28.32
2022-10-16T07:55:09.343Z,27.95
2022-10-16T07:56:12.363Z,27.84
2022-10-16T07:57:17.631Z,28.20
2022-10-16T07:58:20.690Z,28.83
2022-10-16T07:59:25.386Z,29.26
2022-10-16T08:00:30.350Z,28.46
2022-10-16T08:01:34.125Z,28.11
2022-10-16T08:02:37.466Z,28.35
2022-10-16T08:03:43.674Z,29.05
2022-10-16T08:04:48.223Z,29.22
2022-10-16T08:05:56.961Z,28.69
2022-10-16T08:07:01.331Z,28.77
2022-10-16T08:08:06.364Z,27.72
2022-10-16T08:09:09.149Z,27.98
2022-10-16T08:10:13.384Z,27.59
2022-10-16T08:11:17.121Z,27.18
2022-10-16T08:12:20.323Z,26.96
2022-10-16T08:13:23.470Z,27.36
2022-10-16T08:14:26.986Z,27.18
2022-10-16T08:15:30.492Z,27.36
2022-10-16T08:16:35.563Z,26.65
2022-10-16T08:17:39.996Z,27.03
2022-10-16T08:18:43.191Z,27.27
2022-10-16T08:19:50.047Z,27.12
2022-10-16T08:21:00.447Z,27.23
2022-10-16T08:22:04.563Z,27.01
2022-10-16T08:23:08.178Z,26.83
2022-10-16T08:24:13.038Z,26.85
2022-10-16T08:25:19.115Z,26.43
2022-10-16T08:26:24.168Z,25.70
2022-10-16T08:27:35.220Z,25.22
2022-10-16T08:28:43.631Z,23.59
2022-10-16T08:29:47.065Z,22.87
2022-10-16T08:30:50.581Z,23.37
2022-10-16T08:31:52.826Z,23.35
2022-10-16T08:32:56.537Z,23.37
2022-10-16T08:34:00.706Z,22.76
2022-10-16T08:35:04.069Z,22.43
2022-10-16T08:36:07.824Z,22.34
2022-10-16T08:37:12.749Z,22.70
2022-10-16T08:38:16.463Z,22.31
2022-10-16T08:39:19.353Z,21.66
2022-10-16T08:40:33.199Z,21.50
2022-10-16T08:41:45.465Z,21.16
2022-10-16T08:42:50.684Z,20.90
2022-10-16T08:44:05.231Z,20.59
2022-10-16T08:45:28.777Z,20.25
2022-10-16T08:46:33.744Z,20.38
2022-10-16T08:47:37.774Z,20.44
2022-10-16T08:48:56.377Z,20.04
2022-10-16T08:50:01.597Z,20.05
2022-10-16T08:51:06.053Z,19.48
2022-10-16T08:52:13.882Z,19.17
2022-10-16T08:53:22.812Z,18.91
2022-10-16T08:54:41.870Z,18.68
2022-10-16T08:55:47.010Z,18.59
2022-10-16T08:56:50.630Z,18.55
2022-10-16T08:57:54.121Z,18.65
2022-10-16T08:59:01.577Z,18.67
2022-10-16T09:00:08.736Z,18.37
2022-10-16T09:01:17.413Z,18.54
2022-10-16T09:02:41.473Z,18.50
2022-10-16T09:03:46.862Z,18.55
2022-10-16T09:04:56.509Z,18.35
2022-10-16T09:06:02.005Z,18.42
2022-10-16T09:07:13.137Z,18.59
2022-10-16T09:08:18.555Z,18.06
2022-10-16T09:09:28.615Z,17.86
2022-10-16T09:10:33.897Z,17.78
2022-10-16T09:11:41.987Z,17.28
2022-10-16T09:12:48.639Z,17.29
2022-10-16T09:13:53.883Z,17.42
2022-10-16T09:15:10.362Z,17.38
2022-10-16T09:16:23.802Z,17.74
2022-10-16T09:17:49.357Z,17.42
2022-10-16T09:18:54.718Z,17.40
2022-10-16T09:20:02.926Z,17.57
2022-10-16T09:21:25.856Z,17.91
2022-10-16T09:22:31.745Z,18.03
2022-10-16T09:23:37.161Z,18.11
2022-10-16T09:24:39.401Z,17.87
2022-10-16T09:25:45.378Z,17.88
2022-10-16T09:26:49.137Z,18.03
2022-10-16T09:27:54.196Z,17.61
2022-10-16T09:28:59.658Z,17.49
2022-10-16T09:30:06.117Z,17.40
2022-10-16T09:31:17.476Z,17.41
2022-10-16T09:32:22.540Z,17.51
2022-10-16T09:33:26.774Z,17.58
2022-10-16T09:34:35.698Z,17.63
2022-10-16T09:35:44.332Z,17.96
2022-10-16T09:36:47.874Z,17.88
2022-10-16T09:37:52.900Z,17.12
2022-10-16T09:39:04.244Z,17.12
2022-10-16T09:40:08.277Z,17.11
2022-10-16T09:41:24.618Z,17.39
2022-10-16T09:42:36.999Z,17.26
2022-10-16T09:43:44.798Z,16.88
2022-10-16T09:44:55.103Z,17.00
2022-10-16T09:46:06.222Z,17.15
2022-10-16T09:47:19.533Z,16.93
2022-10-16T09:48:22.412Z,16.98
2022-10-16T09:49:28.425Z,17.12
2022-10-16T09:50:31.732Z,17.12
2022-10-16T09:51:39.439Z,17.40
2022-10-16T09:52:42.656Z,17.29
2022-10-16T09:53:47.558Z,17.05
2022-10-16T09:54:52.006Z,16.83
2022-10-16T09:55:55.304Z,16.80
2022-10-16T09:57:08.741Z,16.77
2022-10-16T09:58:14.231Z,16.78
2022-10-16T09:59:18.456Z,16.70
2022-10-16T10:00:22.171Z,16.96
2022-10-16T10:01:27.356Z,17.25
2022-10-16T10:02:39.459Z,17.27
2022-10-16T10:03:44.070Z,17.26
2022-10-16T10:04:56.465Z,17.00
2022-10-16T10:06:02.087Z,16.61
2022-10-16T10:07:06.387Z,16.65
2022-10-16T10:08:11.364Z,16.49
2022-10-16T10:09:20.603Z,16.33
2022-10-16T10:10:25.895Z,16.23
2022-10-16T10:11:49.294Z,16.40
2022-10-16T10:12:53.719Z,16.61
2022-10-16T10:13:59.250Z,16.79
2022-10-16T10:15:08.225Z,16.78
2022-10-16T10:16:12.039Z,16.69
2022-10-16T10:17:17.204Z,16.44
2022-10-16T10:18:23.216Z,16.19
2022-10-16T10:19:32.635Z,16.19
2022-10-16T10:20:37.216Z,16.14
2022-10-16T10:21:40.634Z,16.30
2022-10-16T10:22:45.746Z,16.27
2022-10-16T10:23:50.987Z,16.50
2022-10-16T10:25:12.385Z,16.33
2022-10-16T10:26:17.737Z,15.96
2022-10-16T10:27:21.975Z,15.90
2022-10-16T10:28:42.206Z,15.94
2022-10-16T10:29:50.072Z,16.11
2022-10-16T10:31:00.371Z,16.38
2022-10-16T10:32:11.822Z,16.41
2022-10-16T10:33:15.835Z,16.19
2022-10-16T10:34:21.014Z,16.25
2022-10-16T10:35:26.620Z,16.22
2022-10-16T10:36:32.524Z,16.13
2022-10-16T10:37:42.703Z,16.15
2022-10-16T10:38:50.189Z,16.02
2022-10-16T10:39:55.200Z,16.01
2022-10-16T10:41:04.080Z,15.91
2022-10-16T10:42:21.373Z,15.95
2022-10-16T10:43:26.666Z,15.97
2022-10-16T10:44:38.942Z,15.95
2022-10-16T10:45:48.844Z,15.96
2022-10-16T10:46:53.462Z,15.79
2022-10-16T10:47:57.605Z,15.69
2022-10-16T10:49:05.948Z,15.54
2022-10-16T10:50:31.252Z,15.41
2022-10-16T10:51:36.219Z,15.27
2022-10-16T10:52:44.324Z,15.63
2022-10-16T10:53:49.702Z,15.68
2022-10-16T10:54:56.627Z,15.87
2022-10-16T10:56:14.575Z,15.88
2022-10-16T10:57:27.267Z,15.89
2022-10-16T10:58:38.401Z,15.76
2022-10-16T10:59:51.399Z,15.69
2022-10-16T11:01:02.783Z,15.58
2022-10-16T11:02:13.009Z,15.60
2022-10-16T11:03:21.560Z,15.56
2022-10-16T11:04:29.035Z,15.42
2022-10-16T11:05:33.269Z,15.38
2022-10-16T11:06:49.309Z,15.63
2022-10-16T11:08:01.378Z,15.62
2022-10-16T11:09:06.334Z,15.73
2022-10-16T11:10:16.221Z,15.78
2022-10-16T11:11:24.766Z,15.81
2022-10-16T11:12:34.800Z,15.91
2022-10-16T11:13:40.513Z,15.63
2022-10-16T11:14:48.618Z,15.59
2022-10-16T11:15:55.994Z,15.54
2022-10-16T11:17:15.932Z,15.36
2022-10-16T11:18:23.580Z,15.38
2022-10-16T11:19:43.799Z,15.32
2022-10-16T11:20:54.773Z,15.46
2022-10-16T11:22:02.928Z,15.54
2022-10-16T11:23:10.298Z,15.40
2022-10-16T11:24:17.018Z,15.05
2022-10-16T11:25:25.556Z,15.12
2022-10-16T11:26:31.763Z,14.99
2022-10-16T11:27:39.213Z,15.15
2022-10-16T11:28:48.759Z,15.20
2022-10-16T11:29:59.391Z,15.27
2022-10-16T11:31:06.477Z,15.40
2022-10-16T11:32:11.964Z,15.47
2022-10-16T11:33:17.078Z,15.43
2022-10-16T11:34:24.292Z,15.31
2022-10-16T11:35:35.982Z,15.11
2022-10-16T11:36:50.321Z,15.07
2022-10-16T11:37:55.706Z,15.10
2022-10-16T11:39:05.687Z,15.08
2022-10-16T11:40:19.326Z,15.16
2022-10-16T11:41:27.413Z,15.06
2022-10-16T11:42:36.787Z,15.06
2022-10-16T11:43:43.103Z,15.26
2022-10-16T11:44:52.117Z,15.23
2022-10-16T11:45:56.588Z,15.09
2022-10-16T11:47:28.466Z,15.19
2022-10-16T11:48:30.130Z,15.19
2022-10-16T11:49:35.122Z,15.08
2022-10-16T11:50:51.762Z,15.23
2022-10-16T11:51:59.822Z,15.07
2022-10-16T11:53:08.375Z,14.97
2022-10-16T11:54:15.533Z,14.97
2022-10-16T11:55:20.603Z,15.10
2022-10-16T11:56:25.248Z,14.92
2022-10-16T11:57:30.459Z,14.98
2022-10-16T11:58:36.973Z,15.13
2022-10-16T11:59:42.084Z,15.12
2022-10-16T12:00:50.806Z,15.21
2022-10-16T12:01:56.057Z,15.10
2022-10-16T12:03:02.466Z,15.10
2022-10-16T12:04:09.113Z,15.27
2022-10-16T12:05:16.911Z,15.29
2022-10-16T12:06:31.071Z,15.01
2022-10-16T12:07:36.746Z,15.16
2022-10-16T12:08:41.453Z,15.16
2022-10-16T12:09:45.966Z,15.01
2022-10-16T12:10:51.555Z,14.89
2022-10-16T12:11:54.993Z,14.81
2022-10-16T12:13:01.395Z,14.94
2022-10-16T12:14:09.810Z,15.17
2022-10-16T12:15:47.108Z,15.27
2022-10-16T12:16:31.652Z,15.36
2022-10-16T12:17:39.337Z,15.06
2022-10-16T12:18:42.724Z,15.14
2022-10-16T12:19:46.005Z,15.02
2022-10-16T12:20:52.356Z,15.04
2022-10-16T12:22:01.804Z,15.07
2022-10-16T12:23:08.558Z,15.10
2022-10-16T12:24:24.795Z,15.11
2022-10-16T12:25:31.342Z,14.96
2022-10-16T12:26:37.769Z,14.84
2022-10-16T12:27:40.639Z,14.78
2022-10-16T12:28:45.670Z,14.83
2022-10-16T12:29:49.121Z,14.99
2022-10-16T12:30:57.017Z,14.92
2022-10-16T12:32:00.829Z,14.92
2022-10-16T12:33:05.379Z,14.96
2022-10-16T12:34:15.260Z,14.95
2022-10-16T12:35:23.031Z,15.04
2022-10-16T12:36:36.366Z,15.01
2022-10-16T12:38:51.734Z,14.86
2022-10-16T12:39:57.119Z,14.73
2022-10-16T12:41:02.281Z,14.80
2022-10-16T12:42:07.470Z,14.74
2022-10-16T12:43:14.246Z,14.82
2022-10-16T12:44:25.306Z,14.89
2022-10-16T12:45:32.046Z,14.87
2022-10-16T12:46:37.261Z,14.94
2022-10-16T12:47:42.542Z,14.86
2022-10-16T12:48:48.990Z,14.78
2022-10-16T12:49:54.982Z,14.70
2022-10-16T12:50:58.071Z,14.80
2022-10-16T12:52:00.520Z,14.73
2022-10-16T12:53:06.573Z,14.72
2022-10-16T12:54:20.747Z,14.87
2022-10-16T12:55:26.701Z,14.86
2022-10-16T12:56:32.779Z,14.77
2022-10-16T12:57:42.902Z,14.79
2022-10-16T12:58:50.909Z,14.83
2022-10-16T12:59:57.339Z,14.71
2022-10-16T13:01:05.780Z,14.75
2022-10-16T13:02:27.790Z,14.79
2022-10-16T13:03:37.189Z,14.95
2022-10-16T13:04:59.196Z,14.97
2022-10-16T13:06:10.319Z,15.01
2022-10-16T13:07:14.448Z,15.07
2022-10-16T13:08:20.042Z,15.03
2022-10-16T13:09:24.390Z,14.98
2022-10-16T13:10:35.210Z,14.88
2022-10-16T13:11:57.547Z,14.91
2022-10-16T13:13:11.662Z,14.93
2022-10-16T13:14:21.643Z,14.75
2022-10-16T13:15:30.314Z,14.83
2022-10-16T13:16:39.309Z,14.90
2022-10-16T13:17:46.896Z,14.92
2022-10-16T13:18:51.445Z,14.92
2022-10-16T13:19:57.550Z,14.81
2022-10-16T13:21:11.814Z,14.73
2022-10-16T13:22:34.538Z,14.73
2022-10-16T13:23:41.135Z,14.73
2022-10-16T13:24:56.589Z,14.64
2022-10-16T13:26:01.556Z,14.69
2022-10-16T13:27:09.520Z,14.64
2022-10-16T13:28:14.111Z,14.70
2022-10-16T13:29:17.711Z,14.72
2022-10-16T13:30:26.822Z,14.46
2022-10-16T13:31:29.222Z,14.60
2022-10-16T13:32:34.760Z,14.69
2022-10-16T13:33:42.835Z,14.67
2022-10-16T13:34:48.735Z,14.67
2022-10-16T13:35:53.294Z,14.58
2022-10-16T13:36:57.820Z,14.56
2022-10-16T13:38:20.846Z,14.57
2022-10-16T13:39:26.020Z,14.43
2022-10-16T13:40:29.431Z,14.42
2022-10-16T13:41:32.194Z,14.45
2022-10-16T13:42:36.337Z,14.40
2022-10-16T13:43:41.341Z,14.34
2022-10-16T13:44:46.780Z,14.34
2022-10-16T13:46:04.102Z,14.37
2022-10-16T13:47:07.491Z,14.38
2022-10-16T13:48:14.266Z,14.43
2022-10-16T13:49:18.676Z,14.35
2022-10-16T13:50:20.915Z,14.26
2022-10-16T13:51:26.366Z,14.32
2022-10-16T13:52:29.573Z,14.24
2022-10-16T13:53:34.888Z,14.21
2022-10-16T13:54:38.068Z,14.13
2022-10-16T13:55:41.905Z,14.15
2022-10-16T13:56:46.657Z,14.09
2022-10-16T13:57:51.302Z,14.07
2022-10-16T13:59:01.285Z,14.14
2022-10-16T14:00:07.942Z,14.16
2022-10-16T14:01:20.693Z,14.18
2022-10-16T14:02:26.626Z,14.09
2022-10-16T14:03:31.186Z,13.96
2022-10-16T14:04:34.976Z,13.94
2022-10-16T14:05:41.854Z,13.88
2022-10-16T14:06:47.133Z,13.83
2022-10-16T14:07:51.683Z,13.69
2022-10-16T14:09:13.868Z,13.59
2022-10-16T14:10:20.826Z,13.57
2022-10-16T14:11:28.069Z,13.62
2022-10-16T14:12:31.602Z,13.64
2022-10-16T14:13:39.721Z,13.64
2022-10-16T14:14:44.600Z,13.51
2022-10-16T14:15:49.433Z,13.49
2022-10-16T14:16:53.239Z,13.47
2022-10-16T14:17:56.699Z,13.37
2022-10-16T14:19:04.430Z,13.33
2022-10-16T14:20:09.936Z,13.29
2022-10-16T14:21:17.403Z,13.27
2022-10-16T14:22:24.768Z,13.29
2022-10-16T14:23:32.550Z,13.24
2022-10-16T14:24:37.525Z,13.23